Fédération Régionale des Sports d'Orientation
Course Hivernale
dimanche 6 janvier 2008
 
Annonce de course

RandOrientation, course ficelle, parcours jalonné et participants à l'initiation

7km
DRIESKENS Béatrice

4km
JAMSIN Marc
ROSOUX Michèle
KOENER Nadine
KAYE Christian
KAYE Tim
COLSON Caty

Parcours jalonné
VANDERCAMMEN Hugo
EYEN Guillaume
GENTEN Youri

Régionale Hivernale

© Helga Orienteering Software, Michael HOCK

Dernière mise à jour le 6 janvier 2008 à 17h31

D1 H1 D2 H2 D3 H3 D4 H4 D5 H5 D6 H6

D1, 8990 m, 125 m

Haut
19e Véronique BASTIN D21 ARDOC 01:17:56 +00:00:00 08'40" 07'36" effort
20e Severine VANDERMEULEN D21 CO Liège 01:18:10 +00:00:14 08'41" 07'37" effort

H1, 8990 m, 125 m

Haut
1er Robert THEISS H40 NSV Amel 00:51:50 05'46" 05'03" effort
2e Jan OEYEN H21 Borasca 00:53:56 +00:02:06 06'00" 05'16" effort
3e Michael HENNES H40 ARDOC 00:54:52 +00:03:02 06'06" 05'21" effort
4e Guido LENGES H21 NSV Amel 00:55:53 +00:04:03 06'13" 05'27" effort
5e Sam DEFERM H21 Borasca 00:59:25 +00:07:35 06'36" 05'48" effort
6e Christian BASTIN H21 ARDOC 01:02:32 +00:10:42 06'57" 06'06" effort
7e Vincent SILLIEN H21 Pégase 01:02:42 +00:10:52 06'58" 06'07" effort
8e Olivier CHATTLAIN H35 ARDOC 01:04:58 +00:13:08 07'13" 06'20" effort
9e Arnis SNORE H21 Altaïr CO 01:07:46 +00:15:56 07'32" 06'37" effort
10e Nicolas LUDOVICY H-18 CO Liège 01:10:14 +00:18:24 07'48" 06'51" effort
11e Serge BAERT H40 K.O.L. 01:11:08 +00:19:18 07'54" 06'57" effort
12e Pierre EYEN H35 CO Liège 01:12:17 +00:20:27 08'02" 07'03" effort
13e Quentin GILLET H21 CO Liège 01:12:40 +00:20:50 08'04" 07'06" effort
14e Eric MATTART H35 Hermathenae 01:14:46 +00:22:56 08'19" 07'18" effort
15e Patrick MAYERES H21 Hermathenae 01:14:49 +00:22:59 08'19" 07'18" effort
16e Frédéric DHONDT H35 CO Liège 01:15:14 +00:23:24 08'22" 07'21" effort
17e Michael HOCK H35 ARDOC 01:15:31 +00:23:41 08'24" 07'22" effort
18e Adrien MOUREAU H-20 Pégase 01:16:40 +00:24:50 08'31" 07'29" effort
21e Johannes HOCK H21 ARDOC 01:20:05 +00:28:15 08'54" 07'49" effort
22e Raymond PALM H21 NSV Amel 01:24:24 +00:32:34 09'23" 08'14" effort
23e Thorsten CREMER H21 Hansa Simmerath 01:25:07 +00:33:17 09'28" 08'18" effort
24e Daniel MASY H50 CO Liège 01:26:35 +00:34:45 09'37" 08'27" effort
25e Frederic BOVY H21 Indiv. 01:32:25 +00:40:35 10'16" 09'01" effort
26e Benoît HEPTIA H21 CO Liège 01:35:14 +00:43:24 10'35" 09'18" effort
27e Michel TILKIN H50 CO Liège 01:36:54 +00:45:04 10'46" 09'27" effort
28e Marcel SIMONIS H45 CO Liège 01:37:29 +00:45:39 10'50" 09'31" effort
29e Chris SCOTT H21 Tout Azimut Fameck 01:40:12 +00:48:22 11'09" 09'47" effort
30e Bernard DELVIGNE H21 Indiv. 01:40:57 +00:49:07 11'13" 09'51" effort
31e Ludovic MARTIN H21 Indiv. 02:07:22 +01:15:32 14'10" 12'26" effort
32e Patrice LOMBET H35 Pégase 02:09:32 +01:17:42 14'24" 12'39" effort
33e Jean-Yves DEBOECK H21 Indiv. 02:11:35 +01:19:45 14'38" 12'51" effort
34e Bernard VAN HOOF H21 Indiv. 02:25:22 +01:33:32 16'10" 14'12" effort
HC Michel BASTIN H21 ARDOC 00:52:59
NC Nicolas SILLIEN H21 Pégase 

D2, 7720 m, 105 m

Haut
13e Greet OEYEN D21 hamok 01:02:35 +00:00:00 08'06" 07'08" effort
27e Séverine CRUTZEN D21 Hermathenae 01:12:51 +00:10:16 09'26" 08'18" effort
30e Stéphanie BLOCKX D21 CO Liège 01:14:52 +00:12:17 09'42" 08'32" effort
38e Caroline BLOCKX D21 CO Liège 01:24:54 +00:22:19 11'00" 09'40" effort
44e Tânia CARVALHO D21 O.L.G. St. Vith ""ARDOC"" 01:49:17 +00:46:42 14'09" 12'27" effort
NC Kerstin BUCHACKER D40 CO Liège 

H2, 7720 m, 105 m

Haut
1er (non communiqué) H40 (non communiqué) 00:52:35 06'48" 06'00" effort
2e Frank VANSPAUWEN H40 Hermathenae 00:53:12 +00:00:37 06'53" 06'04" effort
3e Patrick MOSSOUX H45 Pégase 00:53:26 +00:00:51 06'55" 06'05" effort
4e Dominique PEETERS H45 Borasca 00:54:57 +00:02:22 07'07" 06'16" effort
5e Freddy HENKES H45 ARDOC 00:55:26 +00:02:51 07'10" 06'19" effort
6e Alain GENTEN H40 NSV Amel 00:55:31 +00:02:56 07'11" 06'19" effort
7e Jean-Philippe LOVENS H40 Pégase 00:56:14 +00:03:39 07'16" 06'24" effort
8e Guy PIQUERAY H45 Hermathenae 00:57:00 +00:04:25 07'22" 06'30" effort
9e Alain VANDERCAMMEN H45 OLVE 00:59:29 +00:06:54 07'42" 06'46" effort
10e Nicolas SPILIERS H-18 Altaïr CO 01:00:07 +00:07:32 07'47" 06'51" effort
11e Axel LOEFGEN H45 OLVE 01:01:08 +00:08:33 07'55" 06'58" effort
12e Jean-Noël DEBEHOGNE H45 ASUB 01:01:11 +00:08:36 07'55" 06'58" effort
14e J-François DOHOGNE H40 OLVE 01:03:12 +00:10:37 08'11" 07'12" effort
15e Luc MOUREAU H45 Pégase 01:03:44 +00:11:09 08'15" 07'16" effort
16e Jürgen LOO H21 ARDOC 01:06:14 +00:13:39 08'34" 07'33" effort
17e Dominique STAS H45 ASUB 01:06:36 +00:14:01 08'37" 07'35" effort
18e Quentin MINEUR H-18 Balise 10 01:08:24 +00:15:49 08'51" 07'48" effort
19e Marc VANDEMEULEBROEK H45 ASUB 01:08:36 +00:16:01 08'53" 07'49" effort
20e Rui MOURA H45 Altaïr CO 01:08:45 +00:16:10 08'54" 07'50" effort
21e Jean IGNOUL H45 K.O.L. 01:09:15 +00:16:40 08'58" 07'54" effort
22e Andreas MOHREN H40 Hansa Simmerath 01:09:33 +00:16:58 09'00" 07'55" effort
23e Eric GIAUX H45 Balise 10 01:11:15 +00:18:40 09'13" 08'07" effort
24e Edgard FORTEMPS H35 ARDOC 01:11:36 +00:19:01 09'16" 08'09" effort
25e Félix SIX H45 Pégase 01:12:31 +00:19:56 09'23" 08'16" effort
26e Herbert GENTEN H45 NSV Amel 01:12:46 +00:20:11 09'25" 08'18" effort
28e Jean-Michel LUDOVICY H45 CO Liège 01:13:08 +00:20:33 09'28" 08'20" effort
29e Christian IMBRECHTS H45 ASUB 01:13:28 +00:20:53 09'31" 08'22" effort
31e Luc DERENNE H45 Hermathenae 01:15:21 +00:22:46 09'45" 08'35" effort
32e Bernard PIQUERAY H50 Hermathenae 01:17:20 +00:24:45 10'01" 08'49" effort
33e Marco GENTEN H-18 NSV Amel 01:18:52 +00:26:17 10'13" 08'59" effort
34e (non communiqué) H50 (non communiqué) 01:20:18 +00:27:43 10'24" 09'09" effort
35e Guy MASUY H45 Pégase 01:20:48 +00:28:13 10'28" 09'12" effort
36e Jean-Damien SCHENKELAARS H21 CO Liège 01:21:16 +00:28:41 10'31" 09'16" effort
37e Thierry DEUXANT H45 Pégase 01:24:27 +00:31:52 10'56" 09'37" effort
39e Bernard RENARD H45 Hermathenae 01:26:34 +00:33:59 11'12" 09'52" effort
40e Michel SOLHEID H40 NSV Amel 01:29:41 +00:37:06 11'37" 10'13" effort
41e Eddie VANDEWEYER H50 K.O.L. 01:32:08 +00:39:33 11'55" 10'30" effort
42e Daniel KESSEL H45 OLVE 01:32:35 +00:40:00 11'59" 10'33" effort
43e Daniel DAHM H45 CO Liège 01:38:08 +00:45:33 12'42" 11'11" effort
45e Emmanuel PLISSART H40 ASUB 01:53:54 +01:01:19 14'45" 12'59" effort
46e Artur CASTANHA H45 Altaïr CO 02:06:54 +01:14:19 16'26" 14'28" effort
47e Felipe MARTOS SANCHEZ H21 Indiv. 02:45:05 +01:52:30 21'22" 18'49" effort
NC Philippe TAELEMANS H45 ASUB 
NC Patrick PICARD H45 Balise 10 
NC Marc ARNARDI H40 Balise 10 

D3, 6370 m, 90 m

Haut
2e Elisabeth HENKES D-18 Omega 00:49:56 +00:00:00 07'50" 06'52" effort
9e Katri HAATAJA D40 ASUB 00:58:10 +00:08:14 09'07" 08'00" effort
16e Katharina HENKES D-20 ARDOC 01:03:20 +00:13:24 09'56" 08'42" effort
25e Astrid BASTIN D-18 ARDOC 01:10:14 +00:20:18 11'01" 09'39" effort
29e Frédérique DELHASSE D45 Balise 10 01:12:42 +00:22:46 11'24" 10'00" effort
30e Leslie CRETTELS D21 Hermathenae 01:13:07 +00:23:11 11'28" 10'03" effort
37e Hedwige LEJEUNE D45 CO Liège 01:21:02 +00:31:06 12'43" 11'09" effort
39e Jenny BUELENS D45 ASUB 01:22:49 +00:32:53 13'00" 11'23" effort
40e Florence BASTIN D35 CO Liège 01:23:02 +00:33:06 13'02" 11'25" effort
41e Carine LAMBEAU D45 ASUB 01:24:47 +00:34:51 13'18" 11'39" effort
44e Kerstin HAEP D-18 ARDOC 01:34:40 +00:44:44 14'51" 13'01" effort
48e Deborah HANSEN D-18 ARDOC 01:41:03 +00:51:07 15'51" 13'54" effort
NC Margot VANDEMEULEBROEK D-18 ASUB 

H3, 6370 m, 90 m

Haut
1er Thomas BREDO H-16 OLVE 00:48:31 07'37" 06'40" effort
3e Bruno PARMENTIER H-16 ASUB 00:50:22 +00:01:51 07'54" 06'55" effort
4e Paul BASTIN H55 ARDOC 00:51:32 +00:03:01 08'05" 07'05" effort
5e Julien GILLET H-16 ASUB 00:52:49 +00:04:18 08'17" 07'16" effort
6e Eric HANSEN H21 ARDOC 00:54:43 +00:06:12 08'35" 07'31" effort
7e Alfred RAES H55 Balise 10 00:56:01 +00:07:30 08'47" 07'42" effort
8e Olivier LUDOVICY H-16 CO Liège 00:57:26 +00:08:55 09'01" 07'54" effort
10e Daniel WILLEMSENS H55 Hermathenae 00:58:11 +00:09:40 09'07" 08'00" effort
11e Pierre PARMENTIER H60 ASUB 00:58:28 +00:09:57 09'10" 08'02" effort
12e Ludwig KAUT H55 ARDOC 01:00:12 +00:11:41 09'27" 08'16" effort
13e Marco JACOBS H35 Borasca 01:01:15 +00:12:44 09'37" 08'25" effort
14e Klaus HELD H55 OLVE 01:02:23 +00:13:52 09'47" 08'34" effort
15e Eric HULLY H55 Altaïr CO 01:02:25 +00:13:54 09'48" 08'35" effort
17e Willy LAMON H55 Altaïr CO 01:04:22 +00:15:51 10'06" 08'51" effort
18e Guy WULLEPIT H50 OLVE 01:04:29 +00:15:58 10'07" 08'52" effort
19e Matthieu LEJOLY H-16 ARDOC 01:05:25 +00:16:54 10'16" 09'00" effort
20e Philippe PARIZEL H55 Balise 10 01:06:00 +00:17:29 10'21" 09'04" effort
21e Francis KRIER H55 ASUB 01:06:54 +00:18:23 10'30" 09'12" effort
22e Richard MATHOT H50 Balise 10 01:08:15 +00:19:44 10'42" 09'23" effort
23e Helmut WOLLGARTEN H50 Hansa Simmerath 01:08:30 +00:19:59 10'45" 09'25" effort
24e Chris ADDIERS H50 Omega 01:09:22 +00:20:51 10'53" 09'32" effort
25e Bruno VANDERMEULEN H55 CO Liège 01:10:14 +00:21:43 11'01" 09'39" effort
27e Giel PARDOEL H55 TROL 01:11:11 +00:22:40 11'10" 09'47" effort
28e Christian CHALON H50 Altaïr CO 01:12:01 +00:23:30 11'18" 09'54" effort
31e Bernard DUBOIS H50 HOC 01:16:30 +00:27:59 12'00" 10'31" effort
32e Bert MERTENS H21 Borasca 01:18:31 +00:30:00 12'19" 10'48" effort
33e Marcel SCHWALL H55 OLVE 01:19:05 +00:30:34 12'24" 10'52" effort
34e Charles DE FLINES H55 Hermathenae 01:19:24 +00:30:53 12'27" 10'55" effort
35e Marc VAN STEEN H50 Borasca 01:20:08 +00:31:37 12'34" 11'01" effort
35e Johan CLAES H50 Borasca 01:20:08 +00:31:37 12'34" 11'01" effort
38e Stephane GOOSSENS H21 Hermathenae 01:21:17 +00:32:46 12'45" 11'10" effort
42e Rony HAMMES H50 NSV Amel 01:25:24 +00:36:53 13'24" 11'45" effort
43e Eric MATHIEU H50 Pégase 01:29:45 +00:41:14 14'05" 12'21" effort
45e André LEDENT H60 Balise 10 01:38:36 +00:50:05 15'28" 13'33" effort
46e Loïc GILLAIN H-16 Pégase 01:38:40 +00:50:09 15'29" 13'34" effort
47e Alain BOVYN H21 Indiv. 01:41:01 +00:52:30 15'51" 13'54" effort
49e Josy GLATIGNY H55 Balise 10 01:47:43 +00:59:12 16'54" 14'49" effort
50e Jean-Marie LEGROS H55 CO Liège 02:01:44 +01:13:13 19'06" 16'44" effort
NC Pierre GILLAIN H50 Pégase 
NC Fabrice GENTEN H-16 NSV Amel 

D4, 5340 m, 80 m

Haut
2e Maria HENKES D40 ARDOC 00:48:30 +00:00:00 09'04" 07'54" effort
9e Françoise RENARD D45 CO Liège 00:57:34 +00:09:04 10'46" 09'22" effort
12e Gisela HENNES D21 ARDOC 01:02:14 +00:13:44 11'39" 10'08" effort
13e Janne HEIKKINEN D21 Helsingin Suunnisajat 01:02:57 +00:14:27 11'47" 10'15" effort
16e Julia HENKES D-16 ARDOC 01:04:02 +00:15:32 11'59" 10'25" effort
17e Sylvia HENNES D35 ARDOC 01:04:08 +00:15:38 12'00" 10'27" effort
19e Fanny JAMSIN D-16 CO Liège 01:05:27 +00:16:57 12'15" 10'39" effort
20e Liset HENDRICKX D50 Omega 01:07:17 +00:18:47 12'36" 10'57" effort
23e Brigitte CRUTZEN D50 Hermathenae 01:10:44 +00:22:14 13'15" 11'31" effort
25e Bernadette VANDERMEULEN D50 CO Liège 01:12:31 +00:24:01 13'34" 11'48" effort
30e Martine MINET D50 OLVE 01:22:53 +00:34:23 15'31" 13'30" effort
31e Christel CORTHAUT D50 Borasca 01:29:16 +00:40:46 16'43" 14'32" effort
32e Isabelle SILLIEN D40 Pégase 01:37:33 +00:49:03 18'16" 15'53" effort
35e Catherine DE BIOURGE D40 Pégase 01:53:07 +01:04:37 21'10" 18'25" effort
36e Sandra FLOHIMONT D21 Indiv. 02:36:22 +01:47:52 29'16" 25'28" effort
NC Fanny TILKIN D-16 CO Liège 
NC Sonia GOOSSENS D45 Borasca 
NC Elisabeth VLIEGEN D55 NSV Amel 

H4, 5340 m, 80 m

Haut
1er Freddy SILLIEN H60 Pégase 00:42:08 07'53" 06'51" effort
3e Stephane DMYTERKO H60 Hermathenae 00:51:51 +00:09:43 09'42" 08'26" effort
4e Serge DERY H60 Balise 10 00:52:22 +00:10:14 09'48" 08'31" effort
5e Georges RENNOTTE H65 Hermathenae 00:53:25 +00:11:17 10'00" 08'42" effort
6e Thomas GILLET H-14 ASUB 00:54:09 +00:12:01 10'08" 08'49" effort
7e Tom NIJSTEN H-18 Borasca 00:56:19 +00:14:11 10'33" 09'10" effort
8e Jozef DEN TROOSTER H60 Omega 00:57:07 +00:14:59 10'42" 09'18" effort
10e Benno KIRCH H65 Hansa Simmerath 00:59:23 +00:17:15 11'07" 09'40" effort
11e Albin GENTEN H65 NSV Amel 01:00:06 +00:17:58 11'15" 09'47" effort
14e Dennis HECK H-14 NSV Amel 01:03:20 +00:21:12 11'51" 10'18" effort
15e Willy KUPPER H65 ARDOC 01:03:56 +00:21:48 11'58" 10'24" effort
18e Heribert HAACK H60 ARDOC 01:05:07 +00:22:59 12'11" 10'36" effort
21e Philippe MERTES H-14 NSV Amel 01:09:08 +00:27:00 12'57" 11'15" effort
22e Jean-Pierre VAN DER CRUYS H65 ASUB 01:10:28 +00:28:20 13'12" 11'28" effort
24e Julien DACHE H-14 Pégase 01:12:06 +00:29:58 13'30" 11'44" effort
26e Jean BAYI H65 OLVE 01:20:03 +00:37:55 14'59" 13'02" effort
27e Noël NIJSTEN H40 Borasca 01:20:21 +00:38:13 15'03" 13'05" effort
28e Ruud SCHONEWILLE H60 Borasca 01:20:22 +00:38:14 15'03" 13'05" effort
29e Michel RYSENAER H60 ASUB 01:22:30 +00:40:22 15'27" 13'26" effort
33e Pierre MISSELYN H45 Indiv. 01:44:24 +01:02:16 19'33" 17'00" effort
34e Pierre LECOCQ H-14 Hermathenae 01:44:39 +01:02:31 19'36" 17'02" effort
NC Thibaut DERENNE H-14 Hermathenae 
NC Louis PLISSART H-14 ASUB 

D5, 4310 m, 75 m

Haut
2e Colette DECEUNINCK D55 ASUB 00:52:17 +00:00:00 12'07" 10'19" effort
4e Monique DEFFENSE D60 Pégase 00:56:09 +00:03:52 13'01" 11'06" effort
5e Irma COLLIENNE D50 OLVE 00:59:27 +00:07:10 13'47" 11'45" effort
8e Christine PARMENTIER-RENARD D55 ASUB 01:02:57 +00:10:40 14'36" 12'26" effort
9e Maria HENDRICKX D55 Omega 01:03:09 +00:10:52 14'39" 12'28" effort
10e Anne-Marie DEPAYE D55 Hermathenae 01:04:37 +00:12:20 14'59" 12'46" effort
11e Thérèse GENTEN D65 NSV Amel 01:04:56 +00:12:39 15'04" 12'49" effort
12e Mirijam WOLLGARTEN D21 Hansa Simmerath 01:04:58 +00:12:41 15'04" 12'50" effort
15e Françoise CHATELAIN-NANOUX D55 Hermathenae 01:07:30 +00:15:13 15'39" 13'20" effort
16e Manon RENNOTTE-CHAUVEHEID D65 Hermathenae 01:12:07 +00:19:50 16'43" 14'15" effort
17e Laure JAMSIN D-14 CO Liège 01:12:18 +00:20:01 16'46" 14'17" effort
22e (non communiqué) D35 (non communiqué) 01:30:37 +00:38:20 21'01" 17'54" effort

H5, 4310 m, 75 m

Haut
1er Lassi HEIKKINEN H-16 Helsingin Suunnisajat 00:48:38 11'16" 09'36" effort
3e Engelbert OFFERMAN H70 OLVE 00:55:39 +00:07:01 12'54" 11'00" effort
6e Michael HODSON H70 Indiv. 00:59:47 +00:11:09 13'52" 11'48" effort
7e Lucien TONNEAU H70 OLVE 01:00:08 +00:11:30 13'57" 11'52" effort
13e Joseph FAGARD H75 Hermathenae 01:05:19 +00:16:41 15'09" 12'54" effort
14e Clemens BRÜLS H70 OLVE 01:05:29 +00:16:51 15'11" 12'56" effort
18e Joseph PIQUERAY H75 Hermathenae 01:16:40 +00:28:02 17'47" 15'09" effort
19e Klemens HERBRAND H75 ARDOC 01:20:07 +00:31:29 18'35" 15'49" effort
20e Michel EVRARD H75 OLVE 01:21:12 +00:32:34 18'50" 16'03" effort
21e Christian GILLET H40 ASUB 01:24:30 +00:35:52 19'36" 16'42" effort
23e Albert WARNIMONT H70 Hermathenae 01:45:28 +00:56:50 24'28" 20'50" effort
24e Willy GOOSSENS H60 Hermathenae 02:06:19 +01:17:41 29'18" 24'57" effort

D6, 3550 m, 60 m

Haut
1ère Vanessa MERTENS D-18 O.L.G. St. Vith ""ARDOC"" 00:48:58 13'47" 11'48" effort
5e Luisa RAUW D-16 ARDOC 01:01:30 +00:12:32 17'19" 14'49" effort
6e Anna MÜLLER D-14 ARDOC 01:04:41 +00:15:43 18'13" 15'35" effort
8e Anita BAERTS D50 Borasca 01:19:11 +00:30:13 22'18" 19'04" effort
9e Helen HOFFMANN D-12 NSV Amel 01:50:18 +01:01:20 31'04" 26'34" effort
10e Kathrin HOFFMANN D-10 NSV Amel 01:56:58 +01:08:00 32'57" 28'10" effort

H6, 3550 m, 60 m

Haut
2e Jérémy BREDO H-12 OLVE 00:49:09 +00:00:00 13'51" 11'50" effort
3e Roger MERTENS H-14 NSV Amel 00:50:33 +00:01:24 14'14" 12'10" effort
4e Bruno Sr. BARDYN H70 Borasca 00:53:10 +00:04:01 14'58" 12'48" effort
7e Dirk PROBST H-12 ARDOC 01:08:23 +00:19:14 19'15" 16'28" effort
NC Alexander JOST H21 O.L.G. St. Vith ""ARDOC"" 
NC Ruben JAMSIN H-10 CO Liège 

Participation des affiliés FRSO

ARDOC [filtrer]28
CO Liège [filtrer]26
Hermathenae [filtrer]24
ASUB [filtrer]21
Pégase [filtrer]18
NSV Amel [filtrer]17
OLVE [filtrer]16
Balise 10 [filtrer]11
Altaïr CO [filtrer]7
(non communiqué) [filtrer]3
HOC [filtrer]1
 
Total172

Participation des non-affiliés FRSO

Borasca14
Indiv.10
Omega5
Hansa Simmerath5
O.L.G. St. Vith ""ARDOC""3
K.O.L.3
Helsingin Suunnisajat2
hamok1
Tout Azimut Fameck1
TROL1
 
Total45
 
Participation totale217


La vitesse "effort" tient compte de la dénivelée qui rend chaque kilomètre plus difficile.
La dénivelée est ajoutée 10 fois à la distance.
Exemple: 6000 mètres et 180 mètres de dénivelée: 6000 + (180*10) = 7800 mètres.
La vitesse "effort" ne sera pas calculée sur 6000 mètres mais sur 7800 mètres.